Time;durP1;ratioP1;P1;durP2;ratioP2;P2;SDS_P1;SDS_P2;PMS_P1;PMS_P2;Temp;Humidity;BMP_temperature;BMP_pressure;BME280_temperature;BME280_humidity;BME280_pressure;Samples;Min_cycle;Max_cycle;Signal;HPM_P1;HPM_P2
2021/11/19 14:46:49;;;;;;;0.30;0.30;;;;;;;-3.30;74.99;97793.09;5107776;27;21850;-69
2021/11/19 14:49:37;;;;;;;0.30;0.30;;;;;;;-3.19;76.70;97795.41;5107231;28;20048;-68
2021/11/19 14:52:36;;;;;;;0.40;0.40;;;;;;;-3.06;77.65;97788.66;5107523;28;20405;-71
2021/11/19 14:55:46;;;;;;;0.88;0.88;;;;;;;-3.01;78.47;97797.03;5107234;28;20571;-71
2021/11/19 14:58:24;;;;;;;0.75;0.75;;;;;;;-2.96;79.23;97808.09;5107628;28;20059;-71
2021/11/19 15:00:52;;;;;;;4.28;1.60;;;;;;;-2.90;79.67;97793.13;5107898;28;20118;-77
2021/11/19 15:04:00;;;;;;;1.75;1.15;;;;;;;-2.87;79.90;97761.41;5106815;28;20031;-72
2021/11/19 15:10:27;;;;;;;0.32;0.32;;;;;;;-2.80;80.34;97779.50;5081627;28;20043;-69
2021/11/19 15:12:56;;;;;;;0.30;0.30;;;;;;;-2.81;80.55;97781.34;5086595;28;20032;-71
2021/11/19 15:15:29;;;;;;;4.38;0.63;;;;;;;-2.78;80.67;97780.16;5085610;28;20401;-73
2021/11/19 15:18:01;;;;;;;1.97;0.60;;;;;;;-2.75;80.68;97779.78;5084543;28;20024;-70
2021/11/19 15:20:38;;;;;;;0.52;0.52;;;;;;;-2.71;80.80;97773.91;5083892;28;20270;-72
2021/11/19 15:23:31;;;;;;;0.90;0.60;;;;;;;-2.70;80.93;97772.88;5084968;28;20032;-72
2021/11/19 15:25:58;;;;;;;2.78;1.00;;;;;;;-2.74;80.87;97785.03;5083290;28;20103;-71
2021/11/19 15:28:38;;;;;;;0.40;0.38;;;;;;;-2.73;81.00;97781.31;5084923;28;20435;-74
2021/11/19 15:31:27;;;;;;;0.68;0.68;;;;;;;-2.71;81.13;97765.00;5083326;28;20028;-74
2021/11/19 15:34:05;;;;;;;1.95;0.55;;;;;;;-2.70;80.97;97764.00;5083900;28;21341;-73
2021/11/19 15:36:48;;;;;;;0.57;0.45;;;;;;;-2.70;81.01;97761.31;5083772;28;20054;-72
2021/11/19 15:39:14;;;;;;;0.40;0.40;;;;;;;-2.73;80.99;97765.19;5086263;28;20028;-74
2021/11/19 15:41:48;;;;;;;0.40;0.40;;;;;;;-2.71;81.13;97762.31;5086547;28;20082;-73
2021/11/19 15:44:18;;;;;;;2.30;0.63;;;;;;;-2.69;81.13;97766.50;5086404;28;20032;-73
2021/11/19 15:46:48;;;;;;;0.50;0.50;;;;;;;-2.67;81.03;97751.03;5086385;28;20139;-74
2021/11/19 15:49:15;;;;;;;0.73;0.40;;;;;;;-2.67;81.06;97752.91;5100696;28;20055;-74
2021/11/19 15:51:55;;;;;;;0.30;0.30;;;;;;;-2.69;81.03;97745.00;5085642;28;20039;-73
2021/11/19 15:54:47;;;;;;;0.40;0.40;;;;;;;-2.73;81.04;97737.47;5086829;28;20039;-69
2021/11/19 15:57:51;;;;;;;0.57;0.40;;;;;;;-2.79;81.02;97735.50;5075420;28;20086;-72
2021/11/19 16:00:26;;;;;;;0.30;0.30;;;;;;;-2.86;81.13;97738.88;5060517;28;20047;-72
2021/11/19 16:03:29;;;;;;;0.80;0.80;;;;;;;-2.88;81.13;97745.44;5072566;28;20112;-67
2021/11/19 16:06:13;;;;;;;0.28;0.28;;;;;;;-2.96;81.18;97743.63;5071193;28;20514;-71
2021/11/19 16:08:54;;;;;;;0.70;0.70;;;;;;;-2.98;81.11;97752.88;5073507;28;20029;-71
2021/11/19 16:13:37;;;;;;;0.60;0.60;;;;;;;-2.94;81.06;97748.84;5115761;27;20423;-68
2021/11/19 16:16:08;;;;;;;2.40;0.70;;;;;;;-2.94;80.96;97740.78;5104301;28;20421;-69
2021/11/19 16:18:40;;;;;;;1.33;1.23;;;;;;;-2.97;80.98;97725.00;5108411;28;20063;-74
2021/11/19 16:21:09;;;;;;;1.27;1.17;;;;;;;-3.00;80.98;97694.81;5103913;28;20046;-71
2021/11/19 16:23:36;;;;;;;2.50;0.60;;;;;;;-3.06;80.86;97706.25;5108200;28;20048;-73
2021/11/19 16:26:05;;;;;;;1.20;1.05;;;;;;;-3.13;80.89;97716.03;5107639;28;20040;-71
2021/11/19 16:31:03;;;;;;;2.03;0.68;;;;;;;-3.22;80.85;97711.72;5107831;27;20400;-69
2021/11/19 16:33:29;;;;;;;0.30;0.30;;;;;;;-3.29;80.96;97706.19;5107603;28;20122;-61
2021/11/19 16:35:55;;;;;;;0.40;0.40;;;;;;;-3.35;80.99;97706.88;5108374;28;20066;-68
2021/11/19 16:38:23;;;;;;;0.80;0.80;;;;;;;-3.35;80.96;97705.03;5108143;28;20063;-71
2021/11/19 16:40:53;;;;;;;0.40;0.40;;;;;;;-3.35;81.09;97704.19;5107742;28;20031;-70
2021/11/19 16:43:22;;;;;;;0.30;0.30;;;;;;;-3.36;80.75;97705.19;5108289;28;20491;-71
2021/11/19 16:45:49;;;;;;;1.13;0.95;;;;;;;-3.37;80.88;97703.53;5109358;28;20067;-74
2021/11/19 16:48:18;;;;;;;0.80;0.73;;;;;;;-3.39;80.78;97705.56;5108002;28;20490;-79
2021/11/19 16:50:50;;;;;;;0.60;0.60;;;;;;;-3.40;80.79;97693.13;5108027;28;20058;-73
2021/11/19 16:53:18;;;;;;;0.30;0.30;;;;;;;-3.41;80.80;97696.84;5107866;28;20413;-69
2021/11/19 16:55:46;;;;;;;0.35;0.35;;;;;;;-3.44;80.81;97697.19;5107504;28;20079;-68
2021/11/19 16:58:12;;;;;;;0.32;0.32;;;;;;;-3.44;81.14;97702.56;5107945;28;20042;-68
2021/11/19 17:00:45;;;;;;;0.55;0.55;;;;;;;-3.43;80.76;97675.56;5107877;28;20064;-69
2021/11/19 17:03:13;;;;;;;0.55;0.55;;;;;;;-3.42;80.67;97687.13;5108034;28;20032;-70
2021/11/19 17:05:39;;;;;;;0.40;0.40;;;;;;;-3.37;80.61;97692.81;5109472;28;20032;-70
2021/11/19 17:08:09;;;;;;;1.95;0.93;;;;;;;-3.34;80.42;97684.41;5108877;28;20460;-75
2021/11/19 17:10:36;;;;;;;0.30;0.30;;;;;;;-3.32;80.46;97666.28;5108008;28;20061;-69
2021/11/19 17:13:03;;;;;;;0.65;0.50;;;;;;;-3.33;80.38;97685.22;5108244;28;20509;-70
2021/11/19 17:15:29;;;;;;;0.50;0.50;;;;;;;-3.34;80.36;97670.97;5108849;28;20477;-71
2021/11/19 17:17:55;;;;;;;1.67;0.90;;;;;;;-3.29;80.31;97675.81;5106883;28;20118;-69
2021/11/19 17:20:24;;;;;;;1.27;0.70;;;;;;;-3.27;80.30;97674.63;5107634;28;20027;-72
2021/11/19 17:22:50;;;;;;;0.52;0.52;;;;;;;-3.30;80.15;97668.78;5107751;28;20465;-67
2021/11/19 17:25:18;;;;;;;0.30;0.30;;;;;;;-3.33;80.23;97659.22;5107590;28;20114;-68
2021/11/19 17:27:46;;;;;;;0.60;0.60;;;;;;;-3.33;80.04;97659.22;5107538;28;20057;-70
2021/11/19 17:30:14;;;;;;;1.02;0.65;;;;;;;-3.33;80.12;97656.53;5103543;28;20552;-69
2021/11/19 17:32:40;;;;;;;0.85;0.50;;;;;;;-3.37;80.03;97665.97;5106837;28;20107;-69
2021/11/19 17:35:07;;;;;;;0.98;0.68;;;;;;;-3.40;79.84;97664.47;5107311;28;20073;-68
2021/11/19 17:37:37;;;;;;;0.30;0.30;;;;;;;-3.39;79.98;97667.97;5107469;28;20077;-70
2021/11/19 17:40:10;;;;;;;0.40;0.40;;;;;;;-3.39;79.91;97666.13;5107343;28;20046;-72
2021/11/19 17:42:42;;;;;;;0.68;0.57;;;;;;;-3.38;79.81;97670.47;5091280;28;20048;-69
2021/11/19 17:45:23;;;;;;;0.30;0.30;;;;;;;-3.36;79.84;97664.94;5094347;28;20028;-71
2021/11/19 17:47:50;;;;;;;0.30;0.30;;;;;;;-3.37;79.79;97655.22;5095103;28;20032;-69
2021/11/19 17:50:55;;;;;;;0.30;0.30;;;;;;;-3.38;79.74;97654.38;5093037;28;20039;-68
2021/11/19 17:56:52;;;;;;;1.17;1.02;;;;;;;-3.39;79.58;97670.66;5088227;28;20046;-70
2021/11/19 17:59:21;;;;;;;0.30;0.30;;;;;;;-3.40;79.60;97672.50;5091312;28;20047;-71
2021/11/19 18:01:47;;;;;;;1.92;0.90;;;;;;;-3.37;79.47;97660.59;5091662;28;20486;-69
2021/11/19 18:04:15;;;;;;;0.32;0.32;;;;;;;-3.35;79.57;97675.50;5091158;28;20086;-69
2021/11/19 18:06:41;;;;;;;0.40;0.40;;;;;;;-3.35;79.52;97648.66;5093242;28;20409;-70
2021/11/19 18:09:10;;;;;;;1.10;0.95;;;;;;;-3.34;79.46;97660.25;5093110;28;20028;-70
2021/11/19 18:11:40;;;;;;;0.30;0.30;;;;;;;-3.33;79.44;97651.16;5093156;28;20036;-69
2021/11/19 18:14:13;;;;;;;0.30;0.30;;;;;;;-3.32;79.36;97678.88;5092719;28;21070;-68
2021/11/19 18:16:42;;;;;;;0.30;0.30;;;;;;;-3.32;79.24;97642.09;5090180;28;20115;-69
2021/11/19 18:19:11;;;;;;;0.95;0.60;;;;;;;-3.29;79.09;97646.31;5090551;28;20050;-72
2021/11/19 18:21:38;;;;;;;0.30;0.30;;;;;;;-3.30;79.16;97647.31;5091137;28;20039;-71
2021/11/19 18:24:04;;;;;;;0.30;0.30;;;;;;;-3.30;79.08;97639.25;5092780;28;20040;-69
2021/11/19 18:26:30;;;;;;;0.50;0.50;;;;;;;-3.30;79.08;97647.31;5092433;28;20051;-71
2021/11/19 18:29:00;;;;;;;1.02;0.93;;;;;;;-3.31;79.01;97645.63;5093105;28;20060;-70
2021/11/19 18:31:33;;;;;;;0.93;0.60;;;;;;;-3.31;78.97;97641.09;5093165;28;20505;-70
2021/11/19 18:34:03;;;;;;;0.45;0.45;;;;;;;-3.32;79.00;97643.97;5092779;28;20053;-70
2021/11/19 18:36:29;;;;;;;1.08;0.50;;;;;;;-3.30;78.91;97645.44;5093423;28;20035;-69
2021/11/19 18:38:58;;;;;;;1.23;0.35;;;;;;;-3.26;78.78;97641.41;5093305;28;20413;-70
2021/11/19 18:41:27;;;;;;;0.40;0.40;;;;;;;-3.22;78.60;97645.41;5093774;28;20375;-69
2021/11/19 18:43:53;;;;;;;0.50;0.50;;;;;;;-3.21;78.62;97643.56;5093735;28;20043;-69
2021/11/19 18:46:23;;;;;;;0.73;0.73;;;;;;;-3.21;78.48;97647.09;5094887;28;20040;-69
2021/11/19 18:48:52;;;;;;;0.80;0.80;;;;;;;-3.22;78.39;97650.78;5094893;28;20103;-68
2021/11/19 18:51:35;;;;;;;0.30;0.30;;;;;;;-3.21;78.36;97660.53;5093444;28;20036;-67
2021/11/19 18:54:02;;;;;;;0.55;0.55;;;;;;;-3.21;78.54;97648.91;5092388;28;20032;-67
2021/11/19 18:56:29;;;;;;;0.30;0.30;;;;;;;-3.20;78.34;97654.13;5092141;28;20032;-67
2021/11/19 18:58:54;;;;;;;1.92;0.80;;;;;;;-3.18;78.32;97654.78;5093485;28;20032;-69
2021/11/19 19:01:28;;;;;;;0.40;0.40;;;;;;;-3.17;78.24;97644.88;5085731;28;20032;-66
2021/11/19 19:03:54;;;;;;;0.75;0.50;;;;;;;-3.17;78.30;97655.63;5073083;28;20142;-67
2021/11/19 19:06:23;;;;;;;0.50;0.50;;;;;;;-3.18;78.25;97636.00;5093355;28;20032;-66
2021/11/19 19:08:54;;;;;;;1.55;0.52;;;;;;;-3.16;78.15;97641.19;5093417;28;20035;-66
2021/11/19 19:11:21;;;;;;;0.68;0.68;;;;;;;-3.19;78.28;97631.63;5093355;28;20028;-66
2021/11/19 19:13:49;;;;;;;0.40;0.30;;;;;;;-3.16;78.29;97646.56;5093356;28;20028;-67
2021/11/19 19:16:18;;;;;;;1.02;1.02;;;;;;;-3.14;78.23;97638.31;5093692;28;20521;-66
2021/11/19 19:18:45;;;;;;;0.30;0.30;;;;;;;-3.16;78.05;97635.81;5093447;28;20028;-66
2021/11/19 19:21:12;;;;;;;0.35;0.35;;;;;;;-3.20;78.30;97635.31;5091955;28;20128;-66
2021/11/19 19:23:40;;;;;;;0.57;0.57;;;;;;;-3.19;78.42;97631.63;5093276;28;20028;-68
2021/11/19 19:26:10;;;;;;;2.15;0.90;;;;;;;-3.17;78.35;97643.03;5092997;28;20032;-65
2021/11/19 19:28:45;;;;;;;0.40;0.40;;;;;;;-3.15;78.27;97644.69;5092779;28;20036;-65
2021/11/19 19:31:19;;;;;;;0.47;0.47;;;;;;;-3.18;78.21;97633.31;5092755;28;20050;-68
2021/11/19 19:33:46;;;;;;;0.75;0.75;;;;;;;-3.22;78.26;97623.94;5092392;28;20094;-68
2021/11/19 19:36:24;;;;;;;0.40;0.40;;;;;;;-3.24;78.13;97622.44;5091515;28;20028;-66
2021/11/19 19:38:50;;;;;;;0.40;0.40;;;;;;;-3.27;78.22;97614.72;5093178;28;20520;-67
2021/11/19 19:41:22;;;;;;;1.00;1.00;;;;;;;-3.32;78.32;97604.53;5092952;28;20439;-69
2021/11/19 19:43:52;;;;;;;0.80;0.80;;;;;;;-3.38;78.24;97602.56;5092881;28;20386;-65
2021/11/19 19:46:22;;;;;;;1.08;0.93;;;;;;;-3.43;78.40;97596.88;5092655;28;20028;-64
2021/11/19 19:48:49;;;;;;;0.95;0.63;;;;;;;-3.47;78.68;97591.03;5092959;28;20043;-66
2021/11/19 19:51:17;;;;;;;0.30;0.30;;;;;;;-3.46;78.42;97583.78;5092970;28;20047;-67
2021/11/19 19:53:46;;;;;;;0.65;0.45;;;;;;;-3.46;78.55;97587.34;5092479;28;20028;-64
2021/11/19 19:56:19;;;;;;;0.50;0.50;;;;;;;-3.45;78.32;97582.78;5091034;28;20036;-68
2021/11/19 19:58:46;;;;;;;0.30;0.30;;;;;;;-3.44;78.17;97589.84;5091143;28;20379;-68
2021/11/19 20:01:17;;;;;;;0.80;0.65;;;;;;;-3.40;78.08;97591.13;5092522;28;20024;-67
2021/11/19 20:03:43;;;;;;;0.52;0.52;;;;;;;-3.38;77.94;97598.00;5090557;28;20185;-68
2021/11/19 20:06:10;;;;;;;0.30;0.30;;;;;;;-3.35;78.00;97589.59;5092601;28;20482;-66
2021/11/19 20:08:37;;;;;;;0.38;0.38;;;;;;;-3.33;77.88;97586.75;5108093;28;20039;-68
2021/11/19 20:11:03;;;;;;;0.40;0.40;;;;;;;-3.30;77.54;97590.94;5092073;28;20057;-67
2021/11/19 20:13:29;;;;;;;0.30;0.30;;;;;;;-3.33;77.63;97576.00;5092555;28;20110;-67
2021/11/19 20:15:55;;;;;;;0.28;0.28;;;;;;;-3.36;77.38;97579.03;5092444;28;20126;-67
2021/11/19 20:18:22;;;;;;;0.73;0.73;;;;;;;-3.35;77.49;97564.63;5092766;28;20032;-69
2021/11/19 20:21:08;;;;;;;0.30;0.30;;;;;;;-3.38;77.50;97568.50;5092937;28;20116;-65
2021/11/19 20:23:35;;;;;;;0.77;0.77;;;;;;;-3.42;77.49;97574.38;5091557;28;20046;-66
2021/11/19 20:26:15;;;;;;;0.55;0.55;;;;;;;-3.46;77.55;97563.19;5092074;28;20032;-66
2021/11/19 20:28:42;;;;;;;0.40;0.40;;;;;;;-3.48;77.56;97562.50;5091772;28;20028;-67
2021/11/19 20:31:25;;;;;;;0.82;0.82;;;;;;;-3.47;77.49;97566.88;5092404;28;20036;-68
2021/11/19 20:33:53;;;;;;;0.40;0.40;;;;;;;-3.48;77.24;97559.81;5091779;28;20542;-64
2021/11/19 20:36:21;;;;;;;0.40;0.40;;;;;;;-3.45;77.18;97577.44;5092096;28;20119;-66
2021/11/19 20:38:47;;;;;;;0.40;0.38;;;;;;;-3.43;77.13;97572.72;5092050;28;20036;-66
2021/11/19 20:41:19;;;;;;;1.17;1.05;;;;;;;-3.39;77.14;97576.72;5092277;28;20409;-66
2021/11/19 20:43:46;;;;;;;0.30;0.30;;;;;;;-3.39;77.25;97574.03;5090773;28;20087;-65
2021/11/19 20:46:14;;;;;;;0.52;0.52;;;;;;;-3.36;76.91;97579.91;5092336;28;20024;-67
2021/11/19 20:48:40;;;;;;;0.40;0.40;;;;;;;-3.33;76.95;97572.50;5093276;28;20060;-66
2021/11/19 20:51:10;;;;;;;0.68;0.68;;;;;;;-3.30;76.73;97574.81;5083254;28;20133;-65
2021/11/19 20:53:37;;;;;;;0.50;0.50;;;;;;;-3.28;76.70;97578.16;5070835;28;20031;-66
2021/11/19 20:56:07;;;;;;;0.55;0.55;;;;;;;-3.27;76.70;97580.66;5071136;28;20032;-65
2021/11/19 20:58:34;;;;;;;0.35;0.35;;;;;;;-3.27;76.72;97571.78;5071695;28;20113;-68
2021/11/19 21:01:17;;;;;;;0.30;0.30;;;;;;;-3.25;76.77;97581.34;5071942;28;20048;-66
2021/11/19 21:03:47;;;;;;;0.30;0.30;;;;;;;-3.28;76.70;97576.31;5071286;28;20067;-68
2021/11/19 21:06:15;;;;;;;0.88;0.45;;;;;;;-3.27;76.63;97564.56;5071708;28;20616;-67
2021/11/19 21:08:41;;;;;;;0.40;0.40;;;;;;;-3.23;76.73;97562.38;5071826;28;20040;-66
2021/11/19 21:11:08;;;;;;;0.50;0.50;;;;;;;-3.23;76.59;97568.56;5071843;28;20434;-67
2021/11/19 21:13:36;;;;;;;1.85;0.50;;;;;;;-3.20;76.56;97570.88;5072034;28;20037;-66
2021/11/19 21:16:04;;;;;;;0.90;0.57;;;;;;;-3.18;76.42;97574.25;5072531;28;20036;-66
2021/11/19 21:18:32;;;;;;;1.50;0.60;;;;;;;-3.20;76.51;97581.63;5075886;28;20044;-67
2021/11/19 21:21:07;;;;;;;0.30;0.30;;;;;;;-3.19;76.44;97577.94;5075909;28;20123;-65
2021/11/19 21:23:36;;;;;;;0.40;0.40;;;;;;;-3.18;76.51;97587.66;5075545;28;20493;-65
2021/11/19 21:26:06;;;;;;;0.30;0.30;;;;;;;-3.14;76.33;97588.13;5075329;28;20064;-70
2021/11/19 21:28:31;;;;;;;0.30;0.30;;;;;;;-3.14;76.37;97582.78;5075099;28;20029;-68
2021/11/19 21:31:01;;;;;;;0.40;0.40;;;;;;;-3.11;76.33;97565.47;5075070;28;20149;-66
2021/11/19 21:33:31;;;;;;;1.30;0.68;;;;;;;-3.10;76.30;97576.03;5074557;28;20555;-67
2021/11/19 21:35:59;;;;;;;0.40;0.40;;;;;;;-3.09;76.37;97592.97;5074972;28;20024;-67
2021/11/19 21:38:27;;;;;;;0.45;0.45;;;;;;;-3.10;76.39;97578.72;5075255;28;20033;-69
2021/11/19 21:40:56;;;;;;;1.65;0.50;;;;;;;-3.06;76.36;97576.50;5075160;28;20040;-67
2021/11/19 21:43:23;;;;;;;0.50;0.50;;;;;;;-3.04;76.40;97572.63;5075174;28;20028;-67
2021/11/19 21:45:51;;;;;;;0.30;0.30;;;;;;;-3.03;76.39;97578.84;5075941;28;20033;-67
2021/11/19 21:48:18;;;;;;;0.30;0.30;;;;;;;-3.04;76.42;97578.00;5076390;28;20032;-67
2021/11/19 21:50:52;;;;;;;0.60;0.60;;;;;;;-3.06;76.25;97588.09;5075310;28;20037;-66
2021/11/19 21:53:23;;;;;;;0.55;0.55;;;;;;;-3.06;76.33;97568.44;5074563;28;20036;-67
2021/11/19 21:56:09;;;;;;;0.60;0.60;;;;;;;-3.08;76.38;97560.56;5075016;28;20083;-67
2021/11/19 21:58:51;;;;;;;0.80;0.80;;;;;;;-3.03;76.48;97576.16;5074856;28;20052;-67
2021/11/19 22:01:30;;;;;;;0.40;0.40;;;;;;;-3.01;76.34;97579.50;5074616;28;20037;-65
2021/11/19 22:04:00;;;;;;;0.30;0.30;;;;;;;-2.97;76.24;97585.34;5074186;28;20044;-67
2021/11/19 22:06:32;;;;;;;2.47;0.50;;;;;;;-2.92;76.23;97586.47;5074701;28;20068;-67
2021/11/19 22:09:00;;;;;;;4.78;0.65;;;;;;;-2.93;76.16;97576.75;5073612;28;20039;-66
2021/11/19 22:11:26;;;;;;;0.30;0.30;;;;;;;-2.92;76.17;97582.97;5074559;28;20032;-64
2021/11/19 22:13:52;;;;;;;0.30;0.30;;;;;;;-2.93;76.28;97566.03;5074598;28;20032;-64
2021/11/19 22:16:19;;;;;;;0.30;0.30;;;;;;;-2.91;76.18;97565.84;5074465;28;20604;-65
2021/11/19 22:18:58;;;;;;;0.30;0.30;;;;;;;-2.92;76.14;97574.91;5074569;28;20479;-64
2021/11/19 22:21:31;;;;;;;0.70;0.52;;;;;;;-2.91;76.13;97547.88;5074391;28;20036;-66
2021/11/19 22:23:57;;;;;;;0.40;0.40;;;;;;;-2.88;76.05;97552.06;5074527;28;20036;-65
2021/11/19 22:26:25;;;;;;;0.70;0.70;;;;;;;-2.89;76.00;97564.63;5073886;28;20040;-64
2021/11/19 22:28:53;;;;;;;0.47;0.47;;;;;;;-2.88;76.15;97552.06;5073631;28;20044;-63
2021/11/19 22:31:23;;;;;;;0.45;0.45;;;;;;;-2.85;76.18;97555.19;5074257;28;20040;-64
2021/11/19 22:33:50;;;;;;;0.40;0.40;;;;;;;-2.84;76.14;97546.13;5073776;28;20395;-63
2021/11/19 22:36:16;;;;;;;0.50;0.50;;;;;;;-2.84;76.05;97542.63;5073959;28;20028;-65
2021/11/19 22:38:50;;;;;;;0.70;0.70;;;;;;;-2.85;76.05;97546.31;5074215;28;20029;-64
2021/11/19 22:41:20;;;;;;;1.85;1.00;;;;;;;-2.80;76.16;97551.97;5073952;28;20036;-65
2021/11/19 22:43:48;;;;;;;0.70;0.70;;;;;;;-2.77;76.15;97553.47;5074009;28;20048;-64
2021/11/19 22:46:14;;;;;;;0.43;0.43;;;;;;;-2.75;76.06;97544.22;5074466;28;20032;-64
2021/11/19 22:48:40;;;;;;;2.00;0.82;;;;;;;-2.75;76.16;97543.34;5074290;28;20060;-65
2021/11/19 22:51:14;;;;;;;0.40;0.40;;;;;;;-2.75;76.22;97537.97;5073890;28;20095;-66
2021/11/19 22:53:45;;;;;;;0.55;0.55;;;;;;;-2.75;76.31;97533.47;5073540;28;20043;-65
2021/11/19 22:56:13;;;;;;;1.95;0.52;;;;;;;-2.76;76.22;97529.09;5073856;28;20046;-64
2021/11/19 22:58:41;;;;;;;1.15;0.63;;;;;;;-2.75;76.42;97529.91;5073908;28;20043;-65
2021/11/19 23:01:21;;;;;;;0.57;0.57;;;;;;;-2.74;76.21;97531.59;5073515;28;20439;-65
2021/11/19 23:03:49;;;;;;;0.63;0.63;;;;;;;-2.74;76.18;97535.16;5072891;28;20032;-64
2021/11/19 23:06:17;;;;;;;0.40;0.40;;;;;;;-2.73;76.17;97527.91;5073606;28;20058;-66
2021/11/19 23:08:43;;;;;;;0.20;0.20;;;;;;;-2.71;76.26;97528.53;5072142;28;20040;-64
2021/11/19 23:11:16;;;;;;;1.15;0.88;;;;;;;-2.69;76.20;97526.53;5073390;28;20040;-64
2021/11/19 23:13:49;;;;;;;0.73;0.73;;;;;;;-2.70;76.21;97523.00;5073595;28;20498;-64
2021/11/19 23:16:25;;;;;;;0.30;0.30;;;;;;;-2.70;76.00;97523.00;5073851;28;20123;-65
2021/11/19 23:18:52;;;;;;;1.08;0.60;;;;;;;-2.71;76.10;97521.34;5072978;28;20029;-64
2021/11/19 23:21:27;;;;;;;0.80;0.45;;;;;;;-2.68;76.21;97517.44;5073192;28;20028;-65
2021/11/19 23:23:53;;;;;;;;;;;;;;;-2.68;76.16;97512.91;5073790;28;20036;-66
2021/11/19 23:26:20;;;;;;;0.50;0.50;;;;;;;-2.70;76.05;97512.25;5073150;28;19920;-64
2021/11/19 23:29:05;;;;;;;0.30;0.30;;;;;;;-2.68;76.07;97506.69;5072772;28;20067;-66
2021/11/19 23:31:45;;;;;;;0.43;0.43;;;;;;;-2.68;75.96;97504.84;5072971;28;20033;-66
2021/11/19 23:34:16;;;;;;;0.50;0.50;;;;;;;-2.68;76.02;97501.31;5072582;28;20040;-65
2021/11/19 23:36:45;;;;;;;0.30;0.30;;;;;;;-2.68;75.89;97495.94;5072851;28;20043;-65
2021/11/19 23:39:16;;;;;;;0.55;0.55;;;;;;;-2.68;76.02;97496.78;5088542;28;20039;-68
2021/11/19 23:41:44;;;;;;;2.40;0.50;;;;;;;-2.67;76.05;97490.38;5072908;28;20032;-66
2021/11/19 23:44:10;;;;;;;0.52;0.52;;;;;;;-2.67;75.89;97479.63;5074169;28;20036;-67
2021/11/19 23:46:59;;;;;;;0.30;0.30;;;;;;;-2.65;75.89;97490.19;5073541;28;20056;-67
2021/11/19 23:49:25;;;;;;;1.17;0.70;;;;;;;-2.65;75.87;97488.38;5072438;28;20043;-67
2021/11/19 23:51:53;;;;;;;0.35;0.35;;;;;;;-2.65;75.97;97472.25;5072642;28;20043;-68
2021/11/19 23:54:22;;;;;;;0.30;0.30;;;;;;;-2.61;75.96;97467.31;5072749;28;20044;-67
2021/11/19 23:56:50;;;;;;;0.40;0.40;;;;;;;-2.59;75.79;97470.69;5072552;28;20115;-67
2021/11/19 23:59:19;;;;;;;0.20;0.20;;;;;;;-2.60;75.95;97458.25;5072518;28;20040;-67
